Time;durP1;ratioP1;P1;durP2;ratioP2;P2;SDS_P1;SDS_P2;PMS_P1;PMS_P2;Temp;Humidity;BMP_temperature;BMP_pressure;BME280_temperature;BME280_humidity;BME280_pressure;Samples;Min_cycle;Max_cycle;Signal;HPM_P1;HPM_P2
2023/06/01 00:01:07;;;;;;;4.63;3.53;;;17.90;63.50;;;;;;6093793;23;20482;-63
2023/06/01 00:03:36;;;;;;;5.30;3.60;;;17.80;64.00;;;;;;6109523;23;20434;-63
2023/06/01 00:06:04;;;;;;;5.53;3.37;;;17.90;64.80;;;;;;6092782;23;20513;-63
2023/06/01 00:08:31;;;;;;;4.40;3.17;;;17.70;65.10;;;;;;6120892;23;20472;-62
2023/06/01 00:10:59;;;;;;;5.20;3.97;;;17.70;65.10;;;;;;6119041;23;20980;-62
2023/06/01 00:13:25;;;;;;;6.10;3.27;;;17.60;65.70;;;;;;6119884;23;20777;-61
2023/06/01 00:15:53;;;;;;;4.47;3.90;;;17.60;66.00;;;;;;6120113;23;20418;-62
2023/06/01 00:18:20;;;;;;;5.20;3.30;;;17.60;66.50;;;;;;6118293;23;20905;-63
2023/06/01 00:20:48;;;;;;;3.87;3.47;;;17.50;66.80;;;;;;6119784;23;20533;-62
2023/06/01 00:23:17;;;;;;;4.33;3.73;;;17.40;66.90;;;;;;6119729;23;20453;-62
2023/06/01 00:25:44;;;;;;;4.70;3.53;;;17.40;67.00;;;;;;6118277;23;20426;-62
2023/06/01 00:28:11;;;;;;;4.40;3.30;;;17.40;67.50;;;;;;6093947;23;20438;-62
2023/06/01 00:30:38;;;;;;;3.27;2.70;;;17.30;67.70;;;;;;6120476;23;20477;-62
2023/06/01 00:33:05;;;;;;;7.30;3.67;;;17.30;68.20;;;;;;6119682;23;20941;-62
2023/06/01 00:35:32;;;;;;;4.70;3.27;;;17.20;68.60;;;;;;6120241;23;20425;-62
2023/06/01 00:38:01;;;;;;;3.60;3.17;;;17.20;68.70;;;;;;6118416;23;20442;-62
2023/06/01 00:40:28;;;;;;;5.57;3.90;;;17.20;69.00;;;;;;6096912;23;20507;-62
2023/06/01 00:42:55;;;;;;;4.50;3.73;;;17.10;69.10;;;;;;6119986;23;20449;-63
2023/06/01 00:45:22;;;;;;;4.47;3.17;;;17.10;69.10;;;;;;6119990;23;20816;-62
2023/06/01 00:47:49;;;;;;;4.40;3.20;;;17.10;69.40;;;;;;6118363;23;20520;-62
2023/06/01 00:50:16;;;;;;;4.67;3.47;;;17.10;70.00;;;;;;6119564;23;20469;-62
2023/06/01 00:52:43;;;;;;;4.03;3.40;;;17.00;70.20;;;;;;6119911;23;20478;-62
2023/06/01 00:55:13;;;;;;;5.03;4.00;;;17.00;70.40;;;;;;6101894;23;20505;-63
2023/06/01 00:57:42;;;;;;;3.83;3.10;;;16.90;70.90;;;;;;6107812;23;20940;-62
2023/06/01 01:00:10;;;;;;;3.50;3.10;;;17.00;71.20;;;;;;6119069;23;20546;-63
2023/06/01 01:02:38;;;;;;;5.80;3.80;;;16.90;71.50;;;;;;6120100;23;20426;-63
2023/06/01 01:05:09;;;;;;;3.40;2.90;;;16.80;71.90;;;;;;6120697;23;20834;-62
2023/06/01 01:07:47;;;;;;;4.40;3.10;;;16.70;72.00;;;;;;6118021;23;20433;-62
2023/06/01 01:10:26;;;;;;;4.30;3.90;;;16.70;72.20;;;;;;6119335;23;20931;-62
2023/06/01 01:13:01;;;;;;;10.63;3.20;;;16.70;72.40;;;;;;6119854;23;20431;-62
2023/06/01 01:15:33;;;;;;;3.40;3.10;;;16.70;72.90;;;;;;6120026;23;20508;-63
2023/06/01 01:18:04;;;;;;;4.93;3.40;;;16.60;73.20;;;;;;6100511;23;20446;-62
2023/06/01 01:20:39;;;;;;;5.57;3.50;;;16.60;73.40;;;;;;6119164;23;20461;-62
2023/06/01 01:23:29;;;;;;;3.87;2.97;;;16.60;73.60;;;;;;6117983;23;20579;-62
2023/06/01 01:26:25;;;;;;;4.63;3.30;;;16.60;73.50;;;;;;6119910;23;20647;-62
2023/06/01 01:28:59;;;;;;;4.70;3.30;;;16.50;73.50;;;;;;6099877;23;20509;-62
2023/06/01 01:31:27;;;;;;;3.43;2.83;;;16.50;73.60;;;;;;6120134;23;20834;-63
2023/06/01 01:33:56;;;;;;;3.20;2.90;;;16.50;74.20;;;;;;6120689;23;20924;-62
2023/06/01 01:36:24;;;;;;;3.60;2.80;;;16.50;74.40;;;;;;6121137;23;20421;-62
2023/06/01 01:38:51;;;;;;;3.70;3.40;;;16.50;75.10;;;;;;6119445;23;20433;-63
2023/06/01 01:41:20;;;;;;;3.37;2.80;;;16.60;75.20;;;;;;6121227;23;20495;-62
2023/06/01 01:43:47;;;;;;;3.90;3.30;;;16.40;74.90;;;;;;6120433;23;20478;-63
2023/06/01 01:46:25;;;;;;;4.47;3.50;;;16.40;74.90;;;;;;6121444;23;20427;-63
2023/06/01 01:49:01;;;;;;;4.70;3.20;;;16.40;75.10;;;;;;6119914;23;20445;-62
2023/06/01 01:51:35;;;;;;;4.30;3.30;;;16.40;75.40;;;;;;6120668;23;20500;-62
2023/06/01 01:54:05;;;;;;;4.63;3.37;;;16.30;75.60;;;;;;6105801;23;20463;-62
2023/06/01 01:56:32;;;;;;;5.47;3.90;;;16.30;75.80;;;;;;6120732;23;20773;-62
2023/06/01 01:59:00;;;;;;;4.17;3.23;;;16.30;76.10;;;;;;6119714;23;20488;-62
2023/06/01 02:01:29;;;;;;;4.43;3.20;;;16.30;76.40;;;;;;6121236;23;20421;-62
2023/06/01 02:04:01;;;;;;;5.13;3.23;;;16.20;76.60;;;;;;6107226;23;20930;-62
2023/06/01 02:06:28;;;;;;;4.43;3.03;;;16.20;76.80;;;;;;6091669;23;20959;-62
2023/06/01 02:08:55;;;;;;;3.57;3.27;;;16.20;76.90;;;;;;6112213;23;20422;-62
2023/06/01 02:11:22;;;;;;;5.93;3.87;;;16.10;76.70;;;;;;6119892;23;20437;-62
2023/06/01 02:13:49;;;;;;;4.37;2.97;;;16.10;77.10;;;;;;6110193;23;20454;-62
2023/06/01 02:16:16;;;;;;;3.47;2.97;;;16.10;77.30;;;;;;6091481;23;20567;-62
2023/06/01 02:18:46;;;;;;;5.30;3.20;;;16.10;77.40;;;;;;6091290;23;20434;-62
2023/06/01 02:21:14;;;;;;;3.70;3.20;;;16.00;77.50;;;;;;6091707;23;20466;-62
2023/06/01 02:23:41;;;;;;;3.57;3.03;;;16.00;77.90;;;;;;6106578;23;20439;-62
2023/06/01 02:26:09;;;;;;;4.83;2.97;;;16.00;78.30;;;;;;6121312;23;20421;-63
2023/06/01 02:28:38;;;;;;;4.83;2.80;;;15.90;78.60;;;;;;6120485;23;20418;-61
2023/06/01 02:31:05;;;;;;;4.50;3.23;;;15.90;78.80;;;;;;6121089;23;20445;-61
2023/06/01 02:33:32;;;;;;;3.73;3.27;;;16.00;79.20;;;;;;6104139;23;20422;-61
2023/06/01 02:36:01;;;;;;;3.67;3.20;;;15.90;80.00;;;;;;6120435;23;20440;-63
2023/06/01 02:38:28;;;;;;;4.03;2.90;;;15.90;79.50;;;;;;6120068;23;20513;-63
2023/06/01 02:40:55;;;;;;;5.17;3.10;;;15.90;79.80;;;;;;6121101;23;20465;-63
2023/06/01 02:43:22;;;;;;;6.13;2.90;;;15.90;80.00;;;;;;6115912;23;20430;-63
2023/06/01 02:45:49;;;;;;;3.83;3.00;;;15.90;80.30;;;;;;6117983;23;20796;-61
2023/06/01 02:48:16;;;;;;;5.43;3.17;;;15.80;80.40;;;;;;6120981;23;20461;-62
2023/06/01 02:50:43;;;;;;;4.73;3.50;;;15.80;80.90;;;;;;6120454;23;20488;-61
2023/06/01 02:53:12;;;;;;;5.00;3.23;;;15.80;81.40;;;;;;6117247;23;20484;-62
2023/06/01 02:55:39;;;;;;;3.40;2.93;;;15.70;81.90;;;;;;6119762;23;20514;-62
2023/06/01 02:58:08;;;;;;;3.20;2.90;;;15.70;82.30;;;;;;6120672;23;20429;-63
2023/06/01 03:00:35;;;;;;;3.13;2.80;;;15.60;82.80;;;;;;6120658;23;20817;-62
2023/06/01 03:03:03;;;;;;;4.80;3.50;;;15.60;83.50;;;;;;6119164;23;20926;-62
2023/06/01 03:05:32;;;;;;;4.00;3.00;;;15.60;83.80;;;;;;6116447;23;20433;-62
2023/06/01 03:07:59;;;;;;;4.30;3.13;;;15.50;84.00;;;;;;6102560;23;20805;-62
2023/06/01 03:10:28;;;;;;;5.13;2.83;;;15.50;84.50;;;;;;6091496;23;20449;-62
2023/06/01 03:12:56;;;;;;;3.13;2.77;;;15.50;84.60;;;;;;6094421;23;20431;-62
2023/06/01 03:15:23;;;;;;;5.40;3.10;;;15.50;84.90;;;;;;6109735;23;20441;-62
2023/06/01 03:17:49;;;;;;;3.50;2.63;;;15.50;85.50;;;;;;6091275;23;20448;-62
2023/06/01 03:20:17;;;;;;;3.10;2.53;;;15.50;86.00;;;;;;6091568;23;20470;-62
2023/06/01 03:22:44;;;;;;;5.37;3.10;;;15.50;86.50;;;;;;6113416;23;20772;-62
2023/06/01 03:25:12;;;;;;;3.70;3.00;;;15.50;86.60;;;;;;6091462;23;21078;-62
2023/06/01 03:27:41;;;;;;;4.03;2.90;;;15.50;87.10;;;;;;6091778;23;20434;-62
2023/06/01 03:30:10;;;;;;;3.60;3.17;;;15.40;87.50;;;;;;6091008;23;20458;-62
2023/06/01 03:32:38;;;;;;;6.70;3.50;;;15.40;88.00;;;;;;6091436;23;20422;-62
2023/06/01 03:35:07;;;;;;;3.67;2.90;;;15.40;88.50;;;;;;6118486;23;21188;-62
2023/06/01 03:37:34;;;;;;;3.07;2.77;;;15.40;88.80;;;;;;6178501;23;20821;-62
2023/06/01 03:40:10;;;;;;;4.40;3.40;;;15.40;89.20;;;;;;6179480;23;20813;-62
2023/06/01 03:42:37;;;;;;;4.43;2.90;;;15.30;89.60;;;;;;6178999;23;20451;-62
2023/06/01 03:45:06;;;;;;;4.30;3.20;;;15.40;90.00;;;;;;6177213;23;20518;-62
2023/06/01 03:47:34;;;;;;;4.50;3.60;;;15.40;90.20;;;;;;6179977;23;20412;-62
2023/06/01 03:50:01;;;;;;;3.83;3.30;;;15.30;90.30;;;;;;6179895;23;20458;-62
2023/06/01 03:52:28;;;;;;;3.40;3.10;;;15.40;90.40;;;;;;6179201;23;20432;-62
2023/06/01 03:54:56;;;;;;;3.70;2.90;;;15.30;90.50;;;;;;6179478;23;20426;-62
2023/06/01 03:57:23;;;;;;;3.97;2.83;;;15.50;90.80;;;;;;6167910;23;20475;-62
2023/06/01 03:59:51;;;;;;;3.97;2.80;;;15.30;90.80;;;;;;6179408;23;20546;-62
2023/06/01 04:02:19;;;;;;;3.43;3.13;;;15.30;90.90;;;;;;6178815;23;20647;-63
2023/06/01 04:04:47;;;;;;;3.90;3.10;;;15.40;91.00;;;;;;6178066;23;20453;-62
2023/06/01 04:07:18;;;;;;;4.27;2.83;;;15.40;91.10;;;;;;6179244;23;20512;-62
2023/06/01 04:09:46;;;;;;;5.00;2.97;;;15.40;91.10;;;;;;6179821;23;20432;-62
2023/06/01 04:12:14;;;;;;;6.30;3.17;;;15.40;91.10;;;;;;6178197;23;20440;-62
2023/06/01 04:14:41;;;;;;;3.40;2.73;;;15.40;91.10;;;;;;6179460;23;20438;-62
2023/06/01 04:17:08;;;;;;;3.80;3.00;;;15.50;91.30;;;;;;6178974;23;20423;-62
2023/06/01 04:19:36;;;;;;;5.30;3.47;;;15.40;91.60;;;;;;6178305;23;20466;-62
2023/06/01 04:22:04;;;;;;;4.80;3.13;;;15.50;91.70;;;;;;6179262;23;20420;-62
2023/06/01 04:24:31;;;;;;;3.37;3.07;;;15.50;91.70;;;;;;6179412;23;20940;-62
2023/06/01 04:26:58;;;;;;;3.87;3.23;;;15.50;92.10;;;;;;6177568;23;20568;-62
2023/06/01 04:29:25;;;;;;;4.20;3.20;;;15.50;92.70;;;;;;6178976;23;20444;-62
2023/06/01 04:31:54;;;;;;;4.53;3.00;;;15.50;92.60;;;;;;6178542;23;20452;-62
2023/06/01 04:34:23;;;;;;;4.57;3.37;;;15.40;92.90;;;;;;6179058;23;20420;-62
2023/06/01 04:36:52;;;;;;;5.07;3.23;;;15.40;93.10;;;;;;6178474;23;20432;-62
2023/06/01 04:39:19;;;;;;;5.00;3.50;;;15.40;93.30;;;;;;6179126;23;20523;-63
2023/06/01 04:41:46;;;;;;;5.67;3.33;;;15.40;93.50;;;;;;6178613;23;20542;-63
2023/06/01 04:44:13;;;;;;;5.70;3.20;;;15.40;93.80;;;;;;6179169;23;21014;-63
2023/06/01 04:46:40;;;;;;;5.53;3.33;;;15.50;93.80;;;;;;6179312;23;20455;-63
2023/06/01 04:49:11;;;;;;;4.40;3.60;;;15.50;93.60;;;;;;6178041;23;20538;-63
2023/06/01 04:51:40;;;;;;;4.63;3.17;;;15.60;93.40;;;;;;6179017;23;20428;-63
2023/06/01 04:54:09;;;;;;;4.10;2.90;;;15.70;93.40;;;;;;6178954;23;20986;-63
2023/06/01 04:56:36;;;;;;;5.20;3.30;;;15.70;93.40;;;;;;6179107;23;20412;-63
2023/06/01 04:59:05;;;;;;;3.60;2.60;;;15.80;93.10;;;;;;6179111;23;20438;-63
2023/06/01 05:01:32;;;;;;;4.03;2.87;;;15.90;92.90;;;;;;6177228;23;20528;-63
2023/06/01 05:04:00;;;;;;;3.50;3.20;;;16.00;92.80;;;;;;6178702;23;20416;-63
2023/06/01 05:06:27;;;;;;;5.10;3.40;;;16.00;92.60;;;;;;6178250;23;20926;-63
2023/06/01 05:08:54;;;;;;;4.43;3.10;;;16.20;92.60;;;;;;6177056;23;20495;-63
2023/06/01 05:11:23;;;;;;;4.83;3.40;;;16.20;92.40;;;;;;6179196;23;20443;-63
2023/06/01 05:13:51;;;;;;;5.27;3.13;;;16.30;92.40;;;;;;6178751;23;20411;-63
2023/06/01 05:16:18;;;;;;;4.70;3.47;;;16.40;92.40;;;;;;6179065;23;20420;-63
2023/06/01 05:18:45;;;;;;;4.10;3.27;;;16.40;92.00;;;;;;6177225;23;20436;-63
2023/06/01 05:21:11;;;;;;;4.50;3.00;;;16.50;91.90;;;;;;6179371;23;20534;-63
2023/06/01 05:23:39;;;;;;;4.07;3.53;;;16.50;91.90;;;;;;6178759;23;20503;-63
2023/06/01 05:26:06;;;;;;;6.83;3.83;;;16.60;91.80;;;;;;6178548;23;20503;-63
2023/06/01 05:28:36;;;;;;;4.57;3.57;;;16.70;91.70;;;;;;6177860;23;20471;-64
2023/06/01 05:31:03;;;;;;;3.50;3.20;;;16.80;91.60;;;;;;6177446;23;20436;-63
2023/06/01 05:33:30;;;;;;;5.30;3.50;;;16.80;91.40;;;;;;6177119;23;20438;-63
2023/06/01 05:35:57;;;;;;;4.83;3.30;;;16.90;91.30;;;;;;6177469;23;20519;-63
2023/06/01 05:38:25;;;;;;;3.40;2.87;;;17.00;91.10;;;;;;6165406;23;20454;-63
2023/06/01 05:40:52;;;;;;;3.40;3.20;;;17.10;91.20;;;;;;6176304;23;20543;-63
2023/06/01 05:43:18;;;;;;;4.50;3.50;;;17.20;91.30;;;;;;6178509;23;20423;-64
2023/06/01 05:45:48;;;;;;;5.27;3.20;;;17.30;91.20;;;;;;6178759;23;20424;-62
2023/06/01 05:48:15;;;;;;;4.60;3.07;;;17.30;91.20;;;;;;6178382;23;20469;-63
2023/06/01 05:50:42;;;;;;;6.47;3.23;;;17.40;90.80;;;;;;6177542;23;20455;-63
2023/06/01 05:53:09;;;;;;;4.00;3.30;;;17.50;90.50;;;;;;6178489;23;20431;-63
2023/06/01 05:55:37;;;;;;;3.80;3.47;;;17.60;90.30;;;;;;6178340;23;20424;-63
2023/06/01 05:58:04;;;;;;;5.30;3.70;;;17.70;90.20;;;;;;6178604;23;20415;-63
2023/06/01 06:00:31;;;;;;;7.30;3.37;;;17.80;89.80;;;;;;6178238;23;20468;-63
2023/06/01 06:03:00;;;;;;;5.33;3.10;;;17.90;89.00;;;;;;6177577;23;20439;-63
2023/06/01 06:05:27;;;;;;;4.37;3.27;;;18.00;88.50;;;;;;6178562;23;20432;-63
2023/06/01 06:07:54;;;;;;;3.77;3.43;;;18.00;87.70;;;;;;6176761;23;20439;-63
2023/06/01 06:10:20;;;;;;;3.33;3.03;;;18.10;87.00;;;;;;6177490;23;20470;-63
2023/06/01 06:12:48;;;;;;;4.17;3.50;;;18.20;86.60;;;;;;6178188;23;20428;-63
2023/06/01 06:15:15;;;;;;;3.90;3.30;;;18.30;86.70;;;;;;6178300;23;20779;-63
2023/06/01 06:17:42;;;;;;;4.90;3.50;;;18.40;86.70;;;;;;6177594;23;20436;-63
2023/06/01 06:20:11;;;;;;;5.63;3.73;;;18.40;86.10;;;;;;6178217;23;20537;-63
2023/06/01 06:22:38;;;;;;;3.23;2.93;;;18.50;85.70;;;;;;6178662;23;20458;-63
2023/06/01 06:25:06;;;;;;;7.20;3.60;;;18.60;86.10;;;;;;6154606;23;20437;-63
2023/06/01 06:27:33;;;;;;;3.87;3.03;;;18.70;86.20;;;;;;6172274;23;20461;-63
2023/06/01 06:30:00;;;;;;;3.73;3.43;;;18.80;86.70;;;;;;6179644;23;20480;-63
2023/06/01 06:32:27;;;;;;;6.40;3.83;;;18.80;86.40;;;;;;6179271;23;20444;-63
2023/06/01 06:34:54;;;;;;;4.47;3.77;;;19.00;85.50;;;;;;6177810;23;20519;-63
2023/06/01 06:37:23;;;;;;;4.63;3.70;;;19.00;84.80;;;;;;6177957;23;20437;-62
2023/06/01 06:39:50;;;;;;;3.93;3.57;;;19.10;85.10;;;;;;6179426;23;20902;-63
2023/06/01 06:42:17;;;;;;;4.87;3.90;;;19.20;85.00;;;;;;6176594;23;20467;-63
2023/06/01 06:44:44;;;;;;;3.83;3.30;;;19.30;83.80;;;;;;6176841;23;20469;-63
2023/06/01 06:47:14;;;;;;;4.00;3.53;;;19.40;82.60;;;;;;6178076;23;20493;-63
2023/06/01 06:49:42;;;;;;;4.20;3.80;;;19.50;82.40;;;;;;6179852;23;20502;-62
2023/06/01 06:52:10;;;;;;;4.47;3.73;;;19.60;82.30;;;;;;6178475;23;21002;-62
2023/06/01 06:54:40;;;;;;;3.60;3.30;;;19.70;80.50;;;;;;6178771;23;20419;-63
2023/06/01 06:57:07;;;;;;;4.40;3.10;;;19.80;79.70;;;;;;6178729;23;20439;-63
2023/06/01 06:59:35;;;;;;;4.07;3.70;;;19.90;79.10;;;;;;6179711;23;20474;-62
2023/06/01 07:02:02;;;;;;;3.50;3.20;;;20.10;79.80;;;;;;6179190;23;20469;-63
2023/06/01 07:04:29;;;;;;;4.33;3.43;;;20.20;80.10;;;;;;6179457;23;20467;-62
2023/06/01 07:06:56;;;;;;;5.10;3.40;;;20.30;79.20;;;;;;6172637;23;20467;-62
2023/06/01 07:09:23;;;;;;;4.43;3.70;;;20.40;78.50;;;;;;6173889;23;20459;-62
2023/06/01 07:11:51;;;;;;;3.90;3.50;;;20.60;77.40;;;;;;6178320;23;20470;-62
2023/06/01 07:14:18;;;;;;;4.43;3.40;;;20.70;77.00;;;;;;6179592;23;20427;-63
2023/06/01 07:16:45;;;;;;;5.50;3.50;;;20.90;76.20;;;;;;6179839;23;20416;-63
2023/06/01 07:19:12;;;;;;;5.20;4.13;;;21.00;77.00;;;;;;6178375;23;20458;-63
2023/06/01 07:21:40;;;;;;;5.87;3.80;;;20.90;76.60;;;;;;6179517;23;20457;-63
2023/06/01 07:24:07;;;;;;;4.10;3.70;;;21.30;75.60;;;;;;6179689;23;20473;-63
2023/06/01 07:26:35;;;;;;;5.73;4.00;;;21.50;73.60;;;;;;6179429;23;20783;-63
2023/06/01 07:29:03;;;;;;;3.50;3.20;;;21.70;73.50;;;;;;6175749;23;20604;-63
2023/06/01 07:31:31;;;;;;;3.73;3.43;;;21.90;72.60;;;;;;6178732;23;20432;-63
2023/06/01 07:33:58;;;;;;;5.27;3.23;;;22.10;72.30;;;;;;6179270;23;20474;-63
2023/06/01 07:36:26;;;;;;;3.80;3.47;;;22.40;72.60;;;;;;6180097;23;20427;-63
2023/06/01 07:38:52;;;;;;;5.03;3.23;;;22.70;72.10;;;;;;6179102;23;20455;-63
2023/06/01 07:41:19;;;;;;;7.00;3.73;;;22.90;70.60;;;;;;6178114;23;20468;-63
2023/06/01 07:43:47;;;;;;;3.53;3.23;;;23.20;69.30;;;;;;6179229;23;20427;-63
2023/06/01 07:46:15;;;;;;;3.67;3.27;;;23.40;69.20;;;;;;6179705;23;20506;-63
2023/06/01 07:48:42;;;;;;;5.30;3.40;;;23.70;67.90;;;;;;6179285;23;20886;-63
2023/06/01 07:51:09;;;;;;;4.70;3.50;;;24.00;66.80;;;;;;6177788;23;20444;-63
2023/06/01 07:53:36;;;;;;;4.30;3.23;;;24.40;66.20;;;;;;6179444;23;20438;-63
2023/06/01 07:56:04;;;;;;;5.67;3.63;;;24.70;65.90;;;;;;6178792;23;20499;-63
2023/06/01 07:58:31;;;;;;;6.10;3.80;;;25.20;65.70;;;;;;6179257;23;20519;-63
2023/06/01 08:00:58;;;;;;;4.40;3.40;;;25.50;62.60;;;;;;6179470;23;20451;-63
2023/06/01 08:03:26;;;;;;;3.77;3.47;;;25.50;63.20;;;;;;6178179;23;20432;-63
2023/06/01 08:05:57;;;;;;;4.30;3.50;;;25.70;63.60;;;;;;6178557;23;20436;-64
2023/06/01 08:08:24;;;;;;;5.10;3.83;;;25.90;62.90;;;;;;6179537;23;20489;-63
2023/06/01 08:10:51;;;;;;;6.23;3.90;;;26.20;62.60;;;;;;6179197;23;20424;-64
2023/06/01 08:13:19;;;;;;;3.80;3.50;;;26.20;60.80;;;;;;6179140;23;20431;-63
2023/06/01 08:15:47;;;;;;;4.53;4.00;;;26.10;61.40;;;;;;6173556;23;20837;-64
2023/06/01 08:18:14;;;;;;;4.10;3.70;;;26.20;60.20;;;;;;6179253;23;20424;-63
2023/06/01 08:20:44;;;;;;;4.60;4.00;;;26.40;61.30;;;;;;6176037;23;20440;-63
2023/06/01 08:23:11;;;;;;;5.23;3.93;;;26.50;60.40;;;;;;6178396;23;20794;-63
2023/06/01 08:25:38;;;;;;;6.03;3.97;;;26.70;60.30;;;;;;6179396;23;20424;-63
2023/06/01 08:28:05;;;;;;;3.97;3.60;;;26.70;59.20;;;;;;6179466;23;20494;-64
2023/06/01 08:30:32;;;;;;;7.73;3.50;;;26.90;59.90;;;;;;6178242;23;20934;-64
2023/06/01 08:32:59;;;;;;;4.73;4.00;;;27.00;60.60;;;;;;6178772;23;20957;-63
2023/06/01 08:35:26;;;;;;;5.67;3.77;;;27.20;59.80;;;;;;6179278;23;20480;-63
2023/06/01 08:37:54;;;;;;;4.07;3.60;;;27.40;58.30;;;;;;6179605;23;20507;-63
2023/06/01 08:40:21;;;;;;;6.07;3.80;;;27.60;58.70;;;;;;6177369;23;20464;-63
2023/06/01 08:42:58;;;;;;;4.33;3.93;;;27.80;57.50;;;;;;6178673;23;21005;-64
2023/06/01 08:45:26;;;;;;;4.40;3.70;;;28.00;57.40;;;;;;6176490;23;20510;-64
2023/06/01 08:47:54;;;;;;;3.93;3.10;;;28.20;57.50;;;;;;6179584;23;20431;-63
2023/06/01 08:50:22;;;;;;;5.33;4.10;;;28.50;57.00;;;;;;6178961;23;20500;-64
2023/06/01 08:52:53;;;;;;;4.30;3.83;;;28.70;57.10;;;;;;6166922;23;20516;-64
2023/06/01 08:55:22;;;;;;;4.00;3.67;;;29.00;56.70;;;;;;6178335;23;20787;-63
2023/06/01 08:57:49;;;;;;;4.00;3.57;;;29.20;56.10;;;;;;6178433;23;20461;-64
2023/06/01 09:00:17;;;;;;;6.60;4.20;;;29.40;56.20;;;;;;6178073;23;20455;-63
2023/06/01 09:02:44;;;;;;;5.30;4.20;;;29.60;55.50;;;;;;6177546;23;20467;-63
2023/06/01 09:05:12;;;;;;;6.33;4.47;;;29.70;55.40;;;;;;6179027;23;20446;-64
2023/06/01 09:07:40;;;;;;;4.40;4.00;;;30.10;55.20;;;;;;6178701;23;20939;-64
2023/06/01 09:10:08;;;;;;;4.97;4.47;;;30.40;54.20;;;;;;6179004;23;20519;-64
2023/06/01 09:12:40;;;;;;;4.67;4.27;;;30.70;53.70;;;;;;6177259;23;20511;-64
2023/06/01 09:15:13;;;;;;;6.43;4.70;;;30.80;53.30;;;;;;6179048;23;20416;-63
2023/06/01 09:17:41;;;;;;;5.13;4.63;;;30.80;53.00;;;;;;6178958;23;20428;-64
2023/06/01 09:20:13;;;;;;;4.60;4.20;;;30.70;52.40;;;;;;6178941;23;20432;-63
2023/06/01 09:22:41;;;;;;;5.40;3.77;;;30.70;53.40;;;;;;6178359;23;20463;-63
2023/06/01 09:25:08;;;;;;;4.50;4.10;;;30.70;53.30;;;;;;6178084;23;20435;-64
2023/06/01 09:27:46;;;;;;;4.40;4.00;;;30.70;52.90;;;;;;6177954;23;20432;-64
2023/06/01 09:30:13;;;;;;;4.30;3.90;;;31.00;53.20;;;;;;6178915;23;20436;-63
2023/06/01 09:32:41;;;;;;;4.80;4.40;;;31.20;52.70;;;;;;6178511;23;20452;-64
2023/06/01 09:35:09;;;;;;;4.90;4.50;;;31.40;52.00;;;;;;6177826;23;20446;-64
2023/06/01 09:37:38;;;;;;;4.33;3.93;;;31.70;51.70;;;;;;6178371;23;20428;-63
2023/06/01 09:40:18;;;;;;;4.33;3.80;;;31.70;51.20;;;;;;6178456;23;20498;-63
2023/06/01 09:42:49;;;;;;;4.77;4.37;;;31.80;51.40;;;;;;6178099;23;20470;-63
2023/06/01 09:45:18;;;;;;;4.87;4.37;;;32.00;51.00;;;;;;6178830;23;20453;-63
2023/06/01 09:47:46;;;;;;;4.60;4.20;;;32.30;50.30;;;;;;6177438;23;20788;-63
2023/06/01 09:50:32;;;;;;;4.53;4.10;;;32.50;50.60;;;;;;6178303;23;20432;-63
2023/06/01 09:52:59;;;;;;;4.70;4.30;;;32.70;49.70;;;;;;6179184;23;20427;-63
2023/06/01 09:55:26;;;;;;;5.40;4.43;;;32.80;49.20;;;;;;6179351;23;20492;-63
2023/06/01 09:58:20;;;;;;;5.17;4.77;;;32.80;50.20;;;;;;6179155;23;20435;-63
2023/06/01 10:00:48;;;;;;;4.70;4.30;;;33.00;50.10;;;;;;6179915;23;20433;-63
2023/06/01 10:03:15;;;;;;;5.77;4.87;;;33.30;49.40;;;;;;6177551;23;20455;-63
2023/06/01 10:05:43;;;;;;;5.03;4.57;;;33.40;49.00;;;;;;6177515;23;20442;-63
2023/06/01 10:08:12;;;;;;;4.80;4.30;;;33.50;48.30;;;;;;6178097;23;20463;-63
2023/06/01 10:10:39;;;;;;;4.30;3.70;;;33.00;49.50;;;;;;6177539;23;20450;-63
2023/06/01 10:13:07;;;;;;;5.00;4.60;;;32.80;48.10;;;;;;6179433;23;20423;-63
2023/06/01 10:15:35;;;;;;;5.60;5.13;;;32.50;48.50;;;;;;6179748;23;20462;-63
2023/06/01 10:18:04;;;;;;;5.23;4.73;;;32.30;49.80;;;;;;6179685;23;20443;-63
2023/06/01 10:20:34;;;;;;;4.97;4.43;;;32.30;50.30;;;;;;6180174;23;20420;-63
2023/06/01 10:23:01;;;;;;;5.40;5.00;;;32.50;50.10;;;;;;6177788;23;20473;-63
2023/06/01 10:25:32;;;;;;;5.00;4.60;;;32.70;49.80;;;;;;6179306;23;20463;-63
2023/06/01 10:28:03;;;;;;;5.10;4.60;;;32.90;49.20;;;;;;6179364;23;20503;-63
2023/06/01 10:30:30;;;;;;;4.50;4.10;;;33.00;48.80;;;;;;6179971;23;20462;-62
2023/06/01 10:32:59;;;;;;;4.67;4.27;;;33.30;48.90;;;;;;6178739;23;20439;-63
2023/06/01 10:36:05;;;;;;;4.83;4.47;;;33.70;48.50;;;;;;6179649;23;20427;-64
2023/06/01 10:38:32;;;;;;;5.77;4.50;;;34.10;47.90;;;;;;6178930;23;20451;-64
2023/06/01 10:41:31;;;;;;;5.10;4.70;;;34.40;47.20;;;;;;6179709;23;20511;-63
2023/06/01 10:43:58;;;;;;;5.10;4.40;;;34.40;46.70;;;;;;6178276;23;20452;-63
2023/06/01 10:46:37;;;;;;;4.77;4.37;;;33.80;45.40;;;;;;6179438;23;20428;-63
2023/06/01 10:49:06;;;;;;;5.00;4.40;;;33.50;47.40;;;;;;6179788;23;20467;-63
2023/06/01 10:51:33;;;;;;;5.03;4.63;;;33.70;47.20;;;;;;6180119;23;20454;-64
2023/06/01 10:54:24;;;;;;;4.63;4.23;;;33.80;47.90;;;;;;6177764;23;20510;-64
2023/06/01 10:57:22;;;;;;;4.23;3.93;;;34.10;47.40;;;;;;6179652;23;20427;-64
2023/06/01 11:00:26;;;;;;;5.27;4.87;;;34.40;47.10;;;;;;6178944;23;20471;-64
2023/06/01 11:02:56;;;;;;;4.40;4.10;;;34.70;46.00;;;;;;6179410;23;20534;-64
2023/06/01 11:05:46;;;;;;;4.20;3.90;;;34.80;46.10;;;;;;6178531;23;20431;-64
2023/06/01 11:08:54;;;;;;;4.70;4.30;;;35.00;46.40;;;;;;6178514;23;20819;-64
2023/06/01 11:11:22;;;;;;;4.40;4.00;;;35.20;44.80;;;;;;6033440;23;20436;-63
2023/06/01 11:14:09;;;;;;;6.67;4.97;;;35.10;45.20;;;;;;6160672;23;20436;-63
2023/06/01 11:16:36;;;;;;;5.67;4.20;;;34.60;45.70;;;;;;6179401;23;20420;-63
2023/06/01 11:19:06;;;;;;;5.97;4.20;;;34.50;46.60;;;;;;6178763;23;20512;-63
2023/06/01 11:21:37;;;;;;;4.50;4.10;;;34.70;46.30;;;;;;6179509;23;20422;-63
2023/06/01 11:24:10;;;;;;;4.67;4.27;;;34.70;47.00;;;;;;6179662;23;20506;-63
2023/06/01 11:26:40;;;;;;;4.83;4.33;;;34.90;46.60;;;;;;6179209;23;20455;-63
2023/06/01 11:29:18;;;;;;;4.73;4.30;;;35.20;46.10;;;;;;6179769;23;20543;-63
2023/06/01 11:31:47;;;;;;;4.10;3.70;;;35.40;45.50;;;;;;6177346;23;20469;-63
2023/06/01 11:34:18;;;;;;;5.10;4.60;;;35.30;45.50;;;;;;6179663;23;21083;-63
2023/06/01 11:36:48;;;;;;;5.10;4.40;;;34.90;45.50;;;;;;6179170;23;20439;-63
2023/06/01 11:39:23;;;;;;;4.70;4.30;;;34.60;46.40;;;;;;6179848;23;20451;-63
2023/06/01 11:41:52;;;;;;;4.80;4.40;;;34.70;46.50;;;;;;6178139;23;20457;-63
2023/06/01 11:44:19;;;;;;;4.43;4.07;;;35.00;45.70;;;;;;6179538;23;20475;-63
2023/06/01 11:46:56;;;;;;;4.70;4.30;;;35.20;46.20;;;;;;6178958;23;21165;-63
2023/06/01 11:49:24;;;;;;;5.20;4.67;;;35.40;45.60;;;;;;6179883;23;20467;-63
2023/06/01 11:51:53;;;;;;;5.33;4.83;;;35.50;45.40;;;;;;6178111;23;20461;-63
2023/06/01 11:54:26;;;;;;;5.33;4.10;;;35.40;45.90;;;;;;6179347;23;20423;-63
2023/06/01 11:56:54;;;;;;;4.80;4.50;;;35.60;45.20;;;;;;6179043;23;20439;-64
2023/06/01 11:59:22;;;;;;;5.27;4.77;;;35.70;45.30;;;;;;6178927;23;20906;-64
2023/06/01 12:01:52;;;;;;;4.10;3.80;;;35.90;44.90;;;;;;6177804;23;20436;-63
2023/06/01 12:04:21;;;;;;;4.30;3.90;;;36.00;44.80;;;;;;6178721;23;20474;-63
2023/06/01 12:06:49;;;;;;;4.13;3.77;;;36.00;44.00;;;;;;6179204;23;20424;-63
2023/06/01 12:09:20;;;;;;;3.60;3.30;;;36.30;44.40;;;;;;6179084;23;20451;-63
2023/06/01 12:11:47;;;;;;;6.13;4.93;;;36.50;44.20;;;;;;6179314;23;20770;-64
2023/06/01 12:14:16;;;;;;;5.40;4.90;;;36.80;43.50;;;;;;6178545;23;20442;-64
2023/06/01 12:17:00;;;;;;;5.13;4.80;;;36.90;43.20;;;;;;6179315;23;20483;-64
2023/06/01 12:19:28;;;;;;;4.40;4.00;;;36.80;43.30;;;;;;6176724;23;20532;-64
2023/06/01 12:21:58;;;;;;;7.10;4.47;;;36.50;43.50;;;;;;6176935;23;20462;-64
2023/06/01 12:24:30;;;;;;;4.50;4.10;;;36.50;43.40;;;;;;6178000;23;20474;-63
2023/06/01 12:26:59;;;;;;;4.80;3.90;;;36.40;43.20;;;;;;6179313;23;20431;-64
2023/06/01 12:29:36;;;;;;;5.70;4.27;;;36.70;43.20;;;;;;6179301;23;20769;-64
2023/06/01 12:32:04;;;;;;;5.20;3.90;;;36.90;42.70;;;;;;6178892;23;20423;-64
2023/06/01 12:34:31;;;;;;;6.80;4.30;;;37.20;42.70;;;;;;6179121;23;20453;-64
2023/06/01 12:36:58;;;;;;;4.50;3.80;;;37.40;41.90;;;;;;6178846;23;20431;-64
2023/06/01 12:39:36;;;;;;;4.90;4.60;;;37.40;42.10;;;;;;6178463;23;20966;-63
2023/06/01 12:42:05;;;;;;;4.57;4.17;;;37.60;41.80;;;;;;6149320;23;20429;-64
2023/06/01 12:44:33;;;;;;;4.60;4.20;;;37.70;41.90;;;;;;6174792;23;20458;-63
2023/06/01 12:47:02;;;;;;;4.60;3.90;;;37.90;41.20;;;;;;6178682;23;20442;-64
2023/06/01 12:49:29;;;;;;;4.83;4.10;;;37.80;41.20;;;;;;6177320;23;20542;-63
2023/06/01 12:51:56;;;;;;;6.40;4.10;;;37.70;40.10;;;;;;6155055;23;20783;-63
2023/06/01 12:54:23;;;;;;;4.30;4.00;;;37.40;40.80;;;;;;6179005;23;20485;-63
2023/06/01 12:56:52;;;;;;;3.80;3.50;;;37.50;39.80;;;;;;6179376;23;20523;-63
2023/06/01 12:59:20;;;;;;;4.30;3.87;;;37.40;40.30;;;;;;6177752;23;20509;-63